Time;durP1;ratioP1;P1;durP2;ratioP2;P2;SDS_P1;SDS_P2;PMS_P1;PMS_P2;Temp;Humidity;BMP_temperature;BMP_pressure;BME280_temperature;BME280_humidity;BME280_pressure;Samples;Min_cycle;Max_cycle;Signal;HPM_P1;HPM_P2
2021/03/25 00:01:34;;;;;;;;;;;15.90;61.60;;;;;;4896856;29;20338;-62
2021/03/25 00:04:00;;;;;;;;;;;15.90;61.60;;;;;;4864602;29;19914;-61
2021/03/25 00:06:26;;;;;;;;;;;15.80;61.60;;;;;;4897011;29;19907;-61
2021/03/25 00:08:51;;;;;;;;;;;15.80;61.60;;;;;;4896707;29;19915;-62
2021/03/25 00:11:17;;;;;;;;;;;15.80;61.60;;;;;;4896777;29;20459;-61
2021/03/25 00:13:43;;;;;;;;;;;15.70;61.60;;;;;;4880635;29;20303;-61
2021/03/25 00:16:09;;;;;;;;;;;15.80;61.60;;;;;;4896703;29;19958;-62
2021/03/25 00:18:35;;;;;;;;;;;15.70;61.60;;;;;;4896643;29;19914;-62
2021/03/25 00:21:01;;;;;;;;;;;15.80;61.60;;;;;;4896964;29;19936;-62
2021/03/25 00:23:26;;;;;;;;;;;15.80;61.60;;;;;;4899342;29;19915;-62
2021/03/25 00:25:52;;;;;;;;;;;15.60;61.60;;;;;;4900248;29;20173;-61
2021/03/25 00:28:17;;;;;;;;;;;15.70;61.60;;;;;;4900171;29;19912;-61
2021/03/25 00:30:43;;;;;;;;;;;15.70;61.60;;;;;;4899896;29;19975;-61
2021/03/25 00:33:10;;;;;;;;;;;16.60;62.10;;;;;;4899969;29;19943;-61
2021/03/25 00:35:36;;;;;;;;;;;15.60;61.50;;;;;;4900120;29;19930;-61
2021/03/25 00:38:02;;;;;;;;;;;15.40;61.40;;;;;;4899999;29;19912;-61
2021/03/25 00:40:27;;;;;;;;;;;15.80;61.70;;;;;;4900041;29;20067;-61
2021/03/25 00:42:53;;;;;;;;;;;15.50;61.50;;;;;;4899631;29;19907;-62
2021/03/25 00:45:24;;;;;;;;;;;15.50;61.50;;;;;;4899667;29;19955;-62
2021/03/25 00:47:49;;;;;;;;;;;15.70;61.60;;;;;;4899804;29;19912;-62
2021/03/25 00:50:25;;;;;;;;;;;15.50;61.50;;;;;;4899519;29;19934;-61
2021/03/25 00:52:51;;;;;;;;;;;15.70;61.60;;;;;;4899873;29;19998;-62
2021/03/25 00:55:16;;;;;;;;;;;15.50;61.60;;;;;;4899730;29;20343;-62
2021/03/25 00:57:42;;;;;;;;;;;15.50;61.60;;;;;;4899424;29;19908;-62
2021/03/25 01:00:08;;;;;;;;;;;15.40;61.50;;;;;;4899429;29;19914;-61
2021/03/25 01:02:33;;;;;;;;;;;15.70;61.60;;;;;;4899282;29;19971;-61
2021/03/25 01:04:59;;;;;;;;;;;15.70;61.70;;;;;;4899597;29;19907;-62
2021/03/25 01:07:28;;;;;;;;;;;15.60;61.60;;;;;;4899388;29;19908;-61
2021/03/25 01:09:53;;;;;;;;;;;15.70;61.60;;;;;;4899510;29;19916;-61
2021/03/25 01:12:19;;;;;;;;;;;15.40;61.50;;;;;;4899292;29;19907;-61
2021/03/25 01:14:44;;;;;;;;;;;15.60;61.60;;;;;;4899977;29;19927;-61
2021/03/25 01:17:10;;;;;;;;;;;15.50;61.60;;;;;;4882343;29;19962;-61
2021/03/25 01:19:36;;;;;;;;;;;15.60;61.80;;;;;;4882631;29;19908;-61
2021/03/25 01:22:02;;;;;;;;;;;15.60;61.60;;;;;;4899130;29;19918;-61
2021/03/25 01:24:27;;;;;;;;;;;15.60;61.70;;;;;;4899025;29;19907;-61
2021/03/25 01:26:54;;;;;;;;;;;15.50;61.60;;;;;;4898948;29;20628;-61
2021/03/25 01:29:19;;;;;;;;;;;15.40;61.60;;;;;;4898852;29;19915;-62
2021/03/25 01:31:45;;;;;;;;;;;15.60;61.70;;;;;;4898907;29;19908;-61
2021/03/25 01:34:12;;;;;;;;;;;16.00;61.90;;;;;;4898815;29;19949;-62
2021/03/25 01:36:38;;;;;;;;;;;15.50;61.60;;;;;;4899139;29;20277;-61
2021/03/25 01:39:04;;;;;;;;;;;15.50;61.60;;;;;;4899047;29;19908;-61
2021/03/25 01:41:30;;;;;;;;;;;15.60;61.60;;;;;;4898723;29;20000;-61
2021/03/25 01:43:56;;;;;;;;;;;15.50;62.20;;;;;;4898961;29;19930;-61
2021/03/25 01:46:21;;;;;;;;;;;15.60;61.70;;;;;;4898638;29;20425;-62
2021/03/25 01:48:49;;;;;;;;;;;15.50;61.60;;;;;;4898870;29;19976;-61
2021/03/25 01:51:27;;;;;;;;;;;15.50;61.60;;;;;;4898474;29;19992;-61
2021/03/25 01:54:11;;;;;;;;;;;15.50;61.50;;;;;;4898549;29;20006;-61
2021/03/25 01:56:55;;;;;;;;;;;15.60;61.60;;;;;;4898438;29;19931;-61
2021/03/25 01:59:39;;;;;;;;;;;15.50;61.60;;;;;;4898611;29;19908;-61
2021/03/25 02:02:13;;;;;;;;;;;15.50;61.50;;;;;;4898317;29;19907;-61
2021/03/25 02:04:41;;;;;;;;;;;15.50;61.60;;;;;;4898199;29;19991;-61
2021/03/25 02:07:13;;;;;;;;;;;15.50;61.60;;;;;;4898188;29;20362;-61
2021/03/25 02:09:42;;;;;;;;;;;15.40;61.60;;;;;;4898438;29;19915;-61
2021/03/25 02:12:07;;;;;;;;;;;15.50;61.60;;;;;;4898379;29;20323;-61
2021/03/25 02:14:32;;;;;;;;;;;15.50;61.70;;;;;;4898835;29;19926;-62
2021/03/25 02:17:05;;;;;;;;;;;15.50;61.60;;;;;;4897953;29;20006;-62
2021/03/25 02:19:39;;;;;;;;;;;15.50;61.60;;;;;;4897997;29;20452;-62
2021/03/25 02:22:04;;;;;;;;;;;15.50;61.50;;;;;;4897979;29;19907;-61
2021/03/25 02:24:33;;;;;;;;;;;15.20;61.50;;;;;;4897961;29;20386;-61
2021/03/25 02:27:17;;;;;;;;;;;15.30;61.50;;;;;;4898074;29;19907;-62
2021/03/25 02:30:01;;;;;;;;;;;15.50;61.60;;;;;;4897709;29;19926;-62
2021/03/25 02:32:31;;;;;;;;;;;15.40;61.60;;;;;;4897776;29;19907;-61
2021/03/25 02:34:59;;;;;;;;;;;15.40;61.50;;;;;;4897915;29;19911;-61
2021/03/25 02:37:34;;;;;;;;;;;15.30;61.60;;;;;;4897754;29;19907;-61
2021/03/25 02:40:07;;;;;;;;;;;15.40;61.60;;;;;;4897606;29;19912;-62
2021/03/25 02:42:43;;;;;;;;;;;15.40;61.60;;;;;;4897493;29;19912;-61
2021/03/25 02:45:12;;;;;;;;;;;15.40;61.60;;;;;;4897270;29;19907;-61
2021/03/25 02:47:40;;;;;;;;;;;15.40;61.60;;;;;;4897437;29;19911;-62
2021/03/25 02:50:15;;;;;;;;;;;15.40;61.60;;;;;;4897782;29;20287;-62
2021/03/25 02:52:43;;;;;;;;;;;15.40;61.60;;;;;;4897831;29;20328;-62
2021/03/25 02:55:10;;;;;;;;;;;15.50;61.70;;;;;;4897708;29;20006;-62
2021/03/25 02:57:42;;;;;;;;;;;15.40;61.60;;;;;;4897546;29;20427;-62
2021/03/25 03:00:11;;;;;;;;;;;15.30;61.60;;;;;;4897350;29;19911;-61
2021/03/25 03:02:38;;;;;;;;;;;15.30;61.60;;;;;;4897258;29;20002;-61
2021/03/25 03:05:15;;;;;;;;;;;15.40;61.70;;;;;;4897263;29;19995;-62
2021/03/25 03:07:43;;;;;;;;;;;15.40;61.70;;;;;;4903607;29;20006;-61
2021/03/25 03:10:10;;;;;;;;;;;15.40;61.70;;;;;;4897219;29;20023;-62
2021/03/25 03:12:41;;;;;;;;;;;15.30;61.60;;;;;;4897214;29;19947;-61
2021/03/25 03:15:26;;;;;;;;;;;15.30;61.60;;;;;;4898033;29;19923;-62
2021/03/25 03:18:03;;;;;;;;;;;15.30;61.60;;;;;;4897267;29;20006;-61
2021/03/25 03:20:37;;;;;;;;;;;15.40;61.60;;;;;;4897342;29;19908;-61
2021/03/25 03:23:03;;;;;;;;;;;15.30;61.50;;;;;;4897406;29;19965;-62
2021/03/25 03:25:28;;;;;;;;;;;15.30;61.60;;;;;;4897457;29;19947;-62
2021/03/25 03:28:02;;;;;;;;;;;15.30;61.60;;;;;;4897171;29;19907;-62
2021/03/25 03:30:31;;;;;;;;;;;15.30;61.60;;;;;;4897128;29;19926;-61
2021/03/25 03:32:59;;;;;;;;;;;15.30;61.60;;;;;;4880341;29;19971;-62
2021/03/25 03:35:29;;;;;;;;;;;15.20;61.60;;;;;;4897254;29;20278;-61
2021/03/25 03:37:57;;;;;;;;;;;15.10;61.50;;;;;;4897211;29;19963;-62
2021/03/25 03:40:28;;;;;;;;;;;15.30;61.60;;;;;;4897095;29;19908;-62
2021/03/25 03:42:58;;;;;;;;;;;15.30;61.60;;;;;;4897284;29;20351;-62
2021/03/25 03:45:25;;;;;;;;;;;15.30;61.60;;;;;;4897059;29;19993;-62
2021/03/25 03:47:53;;;;;;;;;;;15.30;61.70;;;;;;4897342;29;20275;-61
2021/03/25 03:50:33;;;;;;;;;;;15.80;61.90;;;;;;4897206;29;19979;-62
2021/03/25 03:52:59;;;;;;;;;;;15.20;61.60;;;;;;4897091;29;20351;-62
2021/03/25 03:55:24;;;;;;;;;;;15.20;61.60;;;;;;4897191;29;19908;-62
2021/03/25 03:57:56;;;;;;;;;;;15.10;61.60;;;;;;4899337;29;19992;-61
2021/03/25 04:00:42;;;;;;;;;;;15.20;61.60;;;;;;4900563;29;19947;-61
2021/03/25 04:03:15;;;;;;;;;;;15.20;61.60;;;;;;4900458;29;19912;-62
2021/03/25 04:05:43;;;;;;;;;;;15.20;61.60;;;;;;4900521;29;19995;-62
2021/03/25 04:08:27;;;;;;;;;;;15.20;61.60;;;;;;4900398;29;20002;-62
2021/03/25 04:11:00;;;;;;;;;;;15.20;61.60;;;;;;4900266;29;19923;-61
2021/03/25 04:13:28;;;;;;;;;;;15.20;61.60;;;;;;4900571;29;19933;-61
2021/03/25 04:15:54;;;;;;;;;;;15.00;61.60;;;;;;4900112;29;19923;-61
2021/03/25 04:18:23;;;;;;;;;;;15.10;61.60;;;;;;4883239;29;20377;-62
2021/03/25 04:20:50;;;;;;;;;;;15.20;61.50;;;;;;4900309;29;19908;-61
2021/03/25 04:23:17;;;;;;;;;;;15.10;61.60;;;;;;4900010;29;19908;-61
2021/03/25 04:25:45;;;;;;;;;;;15.10;61.60;;;;;;4900103;29;19918;-62
2021/03/25 04:28:31;;;;;;;;;;;15.00;61.50;;;;;;4899966;29;19907;-61
2021/03/25 04:30:57;;;;;;;;;;;15.20;61.70;;;;;;4899807;29;20014;-61
2021/03/25 04:33:24;;;;;;;;;;;15.10;61.60;;;;;;4900076;29;20045;-61
2021/03/25 04:35:50;;;;;;;;;;;15.20;61.70;;;;;;4899813;29;19911;-61
2021/03/25 04:38:35;;;;;;;;;;;15.10;61.60;;;;;;4899745;29;19954;-61
2021/03/25 04:41:01;;;;;;;;;;;15.10;61.50;;;;;;4882857;29;20326;-62
2021/03/25 04:43:27;;;;;;;;;;;15.20;61.70;;;;;;4899928;29;19946;-61
2021/03/25 04:46:11;;;;;;;;;;;15.10;61.60;;;;;;4899760;29;19911;-62
2021/03/25 04:48:44;;;;;;;;;;;15.10;61.50;;;;;;4899549;29;19907;-62
2021/03/25 04:51:13;;;;;;;;;;;15.10;61.50;;;;;;4899343;29;20006;-61
2021/03/25 04:53:39;;;;;;;;;;;15.00;61.60;;;;;;4899753;29;19907;-62
2021/03/25 04:56:16;;;;;;;;;;;15.00;61.60;;;;;;4899675;29;19911;-62
2021/03/25 04:58:45;;;;;;;;;;;15.10;61.50;;;;;;4882535;29;20088;-61
2021/03/25 05:01:16;;;;;;;;;;;15.10;61.50;;;;;;4899613;29;19911;-62
2021/03/25 05:03:42;;;;;;;;;;;15.10;61.50;;;;;;4899527;29;19919;-61
2021/03/25 05:06:15;;;;;;;;;;;15.10;61.60;;;;;;4899271;29;19983;-61
2021/03/25 05:08:41;;;;;;;;;;;15.10;61.60;;;;;;4898869;29;19907;-62
2021/03/25 05:11:10;;;;;;;;;;;15.00;61.50;;;;;;4899365;29;20102;-62
2021/03/25 05:13:37;;;;;;;;;;;15.10;61.60;;;;;;4899935;29;20391;-62
2021/03/25 05:16:21;;;;;;;;;;;14.90;61.50;;;;;;4898919;29;20037;-61
2021/03/25 05:18:59;;;;;;;;;;;15.00;61.50;;;;;;4899057;29;19908;-62
2021/03/25 05:21:31;;;;;;;;;;;15.10;61.60;;;;;;4899285;29;19950;-62
2021/03/25 05:24:03;;;;;;;;;;;15.00;61.60;;;;;;4899017;29;19998;-62
2021/03/25 05:26:38;;;;;;;;;;;15.00;61.50;;;;;;4898999;29;20411;-62
2021/03/25 05:29:05;;;;;;;;;;;15.00;61.50;;;;;;4898868;29;19967;-61
2021/03/25 05:31:32;;;;;;;;;;;15.00;61.70;;;;;;4898767;29;20363;-62
2021/03/25 05:33:59;;;;;;;;;;;15.00;61.60;;;;;;4898831;29;19911;-62
2021/03/25 05:36:25;;;;;;;;;;;15.00;61.60;;;;;;4898763;29;19998;-62
2021/03/25 05:38:53;;;;;;;;;;;15.00;61.60;;;;;;4898736;29;19998;-62
2021/03/25 05:41:37;;;;;;;;;;;15.00;61.70;;;;;;4898570;29;19915;-62
2021/03/25 05:44:05;;;;;;;;;;;15.00;61.60;;;;;;4898649;29;20437;-61
2021/03/25 05:46:49;;;;;;;;;;;15.00;61.50;;;;;;4898566;29;19907;-61
2021/03/25 05:49:15;;;;;;;;;;;15.00;61.50;;;;;;4898503;29;19954;-61
2021/03/25 05:51:54;;;;;;;;;;;15.00;61.70;;;;;;4898753;29;20426;-62
2021/03/25 05:54:43;;;;;;;;;;;15.00;61.60;;;;;;4898558;29;19998;-62
2021/03/25 05:57:27;;;;;;;;;;;15.00;61.50;;;;;;4881604;29;20002;-62
2021/03/25 05:59:52;;;;;;;;;;;15.00;61.60;;;;;;4898402;29;20433;-61
2021/03/25 06:02:35;;;;;;;;;;;14.90;61.60;;;;;;4898281;29;20001;-62
2021/03/25 06:05:00;;;;;;;;;;;15.00;61.60;;;;;;4898574;29;19959;-62
2021/03/25 06:07:29;;;;;;;;;;;16.90;62.90;;;;;;4898146;29;19990;-62
2021/03/25 06:09:54;;;;;;;;;;;15.00;62.00;;;;;;4881179;29;20300;-61
2021/03/25 06:12:23;;;;;;;;;;;15.80;62.40;;;;;;4898072;29;19915;-61
2021/03/25 06:14:48;;;;;;;;;;;15.20;62.00;;;;;;4898594;29;19920;-60
2021/03/25 06:17:32;;;;;;;;;;;15.20;62.10;;;;;;4898011;29;19955;-60
2021/03/25 06:20:16;;;;;;;;;;;15.40;62.00;;;;;;4880336;29;19912;-61
2021/03/25 06:22:51;;;;;;;;;;;15.50;61.60;;;;;;4897954;29;19915;-60
2021/03/25 06:25:28;;;;;;;;;;;15.60;62.00;;;;;;4880958;29;20002;-61
2021/03/25 06:27:54;;;;;;;;;;;15.50;61.10;;;;;;4897818;29;19911;-60
2021/03/25 06:30:21;;;;;;;;;;;15.70;60.90;;;;;;4880857;29;19974;-60
2021/03/25 06:32:58;;;;;;;;;;;15.90;60.60;;;;;;4897702;29;20354;-60
2021/03/25 06:35:36;;;;;;;;;;;15.90;60.40;;;;;;4897638;29;20331;-60
2021/03/25 06:38:04;;;;;;;;;;;15.90;60.40;;;;;;4897897;29;19907;-60
2021/03/25 06:40:33;;;;;;;;;;;15.90;60.50;;;;;;4897815;29;19915;-60
2021/03/25 06:43:23;;;;;;;;;;;16.00;60.60;;;;;;4897898;29;19947;-60
2021/03/25 06:45:53;;;;;;;;;;;15.90;60.60;;;;;;4897500;29;20024;-60
2021/03/25 06:48:23;;;;;;;;;;;16.50;61.00;;;;;;4897505;29;19943;-60
2021/03/25 06:50:50;;;;;;;;;;;15.90;60.70;;;;;;4897593;29;20271;-61
2021/03/25 06:53:29;;;;;;;;;;;15.80;60.70;;;;;;4897586;29;19914;-58
2021/03/25 06:55:57;;;;;;;;;;;15.80;60.70;;;;;;4897359;29;19914;-60
2021/03/25 06:58:30;;;;;;;;;;;15.80;60.90;;;;;;4897650;29;19911;-61
2021/03/25 07:00:59;;;;;;;;;;;15.80;60.80;;;;;;4897541;29;19907;-62
2021/03/25 07:03:25;;;;;;;;;;;15.70;60.90;;;;;;4896770;29;19907;-61
2021/03/25 07:05:53;;;;;;;;;;;15.70;61.60;;;;;;4897401;29;19907;-60
2021/03/25 07:08:20;;;;;;;;;;;15.80;61.00;;;;;;4897468;29;20375;-60
2021/03/25 07:10:54;;;;;;;;;;;15.80;61.00;;;;;;4897229;29;20283;-60
2021/03/25 07:13:25;;;;;;;;;;;15.70;60.80;;;;;;4897163;29;19907;-61
2021/03/25 07:15:52;;;;;;;;;;;15.70;61.00;;;;;;4898057;29;19975;-60
2021/03/25 07:18:26;;;;;;;;;;;15.70;61.00;;;;;;4897015;29;19912;-59
2021/03/25 07:21:28;;;;;;;;;;;15.80;60.90;;;;;;4897156;29;19908;-58
2021/03/25 07:23:54;;;;;;;;;;;15.70;60.90;;;;;;4819921;29;20019;-58
2021/03/25 07:26:26;;;;;;;;;;;15.80;61.10;;;;;;4879908;29;19915;-58
2021/03/25 07:29:07;;;;;;;;;;;15.80;61.30;;;;;;4895418;29;19907;-59
2021/03/25 07:31:44;;;;;;;;;;;15.70;61.30;;;;;;4897273;29;19919;-58
2021/03/25 07:34:10;;;;;;;;;;;15.70;61.10;;;;;;4899211;29;20010;-59
2021/03/25 07:36:56;;;;;;;;;;;15.90;61.30;;;;;;4899001;29;20030;-58
2021/03/25 07:39:30;;;;;;;;;;;15.50;61.00;;;;;;4898689;29;19907;-58
2021/03/25 07:41:58;;;;;;;;;;;15.70;61.10;;;;;;4900740;29;19946;-61
2021/03/25 07:44:32;;;;;;;;;;;15.70;61.50;;;;;;4900694;29;19919;-61
2021/03/25 07:47:03;;;;;;;;;;;15.70;61.70;;;;;;4900727;29;19940;-61
2021/03/25 07:49:30;;;;;;;;;;;15.70;61.80;;;;;;4900618;29;20473;-61
2021/03/25 07:52:00;;;;;;;;;;;15.70;61.90;;;;;;4900651;29;19954;-61
2021/03/25 07:54:28;;;;;;;;;;;15.70;61.70;;;;;;4906856;29;19967;-61
2021/03/25 07:57:05;;;;;;;;;;;15.60;61.70;;;;;;4900845;29;19962;-61
2021/03/25 07:59:45;;;;;;;;;;;15.60;61.70;;;;;;4900419;29;19914;-61
2021/03/25 08:02:20;;;;;;;;;;;15.60;61.70;;;;;;4900421;29;20282;-61
2021/03/25 08:04:45;;;;;;;;;;;15.60;61.70;;;;;;4883204;29;19955;-61
2021/03/25 08:07:11;;;;;;;;;;;15.50;61.60;;;;;;4900391;29;20322;-61
2021/03/25 08:09:45;;;;;;;;;;;15.50;61.60;;;;;;4900283;29;20355;-61
2021/03/25 08:12:20;;;;;;;;;;;15.60;61.50;;;;;;4900232;29;20366;-61
2021/03/25 08:14:45;;;;;;;;;;;15.50;61.50;;;;;;4900959;29;19919;-61
2021/03/25 08:17:11;;;;;;;;;;;15.60;61.50;;;;;;4900220;29;19998;-61
2021/03/25 08:19:39;;;;;;;;;;;15.50;61.40;;;;;;4900323;29;19951;-61
2021/03/25 08:22:16;;;;;;;;;;;15.50;61.40;;;;;;4899282;29;20279;-61
2021/03/25 08:24:54;;;;;;;;;;;15.50;61.30;;;;;;4899933;29;20013;-62
2021/03/25 08:27:26;;;;;;;;;;;15.50;61.40;;;;;;4900041;29;19908;-61
2021/03/25 08:30:10;;;;;;;;;;;15.40;61.40;;;;;;4900114;29;20209;-61
2021/03/25 08:33:03;;;;;;;;;;;15.50;61.40;;;;;;4900190;29;19907;-61
2021/03/25 08:35:34;;;;;;;;;;;15.50;61.40;;;;;;4906242;29;20003;-61
2021/03/25 08:38:18;;;;;;;;;;;15.50;61.50;;;;;;4899913;29;19916;-62
2021/03/25 08:40:46;;;;;;;;;;;15.50;61.60;;;;;;4882912;29;19908;-62
2021/03/25 08:43:41;;;;;;;;;;;15.40;61.60;;;;;;4899234;29;19907;-61
2021/03/25 08:46:10;;;;;;;;;;;15.40;61.60;;;;;;4832259;29;19912;-61
2021/03/25 08:48:59;;;;;;;;;;;15.30;61.60;;;;;;4911441;29;20266;-61
2021/03/25 08:51:25;;;;;;;;;;;15.40;61.70;;;;;;4909550;29;19971;-61
2021/03/25 08:54:07;;;;;;;;;;;15.40;61.80;;;;;;4901385;29;19942;-62
2021/03/25 08:56:39;;;;;;;;;;;15.40;61.80;;;;;;4901345;29;19911;-61
2021/03/25 08:59:30;;;;;;;;;;;13.90;60.90;;;;;;4918376;29;19911;-61
2021/03/25 09:02:01;;;;;;;;;;;15.40;61.80;;;;;;4895852;29;19952;-61
2021/03/25 09:04:30;;;;;;;;;;;15.40;61.90;;;;;;4899763;29;19908;-61
2021/03/25 09:06:56;;;;;;;;;;;15.40;61.90;;;;;;4899331;29;19907;-61
2021/03/25 09:09:24;;;;;;;;;;;15.30;61.80;;;;;;4882584;29;19908;-61
2021/03/25 09:11:50;;;;;;;;;;;15.40;61.80;;;;;;4899349;29;20273;-61
2021/03/25 09:14:21;;;;;;;;;;;15.40;61.90;;;;;;4900041;29;19908;-61
2021/03/25 09:16:48;;;;;;;;;;;15.30;61.80;;;;;;4899534;29;19907;-61
2021/03/25 09:19:36;;;;;;;;;;;15.90;62.20;;;;;;4899366;29;19911;-62
2021/03/25 09:22:02;;;;;;;;;;;15.40;61.80;;;;;;4899313;29;20355;-61
2021/03/25 09:24:28;;;;;;;;;;;15.30;61.90;;;;;;4899193;29;19911;-61
2021/03/25 09:26:53;;;;;;;;;;;15.80;62.10;;;;;;4899108;29;19907;-61
2021/03/25 09:29:23;;;;;;;;;;;15.30;61.80;;;;;;4898987;29;19963;-61
2021/03/25 09:31:55;;;;;;;;;;;15.10;61.70;;;;;;4898811;29;19907;-60
2021/03/25 09:34:23;;;;;;;;;;;15.30;61.80;;;;;;4899150;29;19915;-61
2021/03/25 09:36:59;;;;;;;;;;;15.30;61.80;;;;;;4898907;29;19938;-61
2021/03/25 09:39:35;;;;;;;;;;;15.30;61.80;;;;;;4898918;29;19913;-61
2021/03/25 09:42:25;;;;;;;;;;;15.30;61.80;;;;;;4899061;29;19911;-61
2021/03/25 09:44:50;;;;;;;;;;;15.30;61.80;;;;;;4888766;29;20339;-60
2021/03/25 09:47:18;;;;;;;;;;;15.10;61.70;;;;;;4898578;29;19907;-61
2021/03/25 09:49:43;;;;;;;;;;;15.20;62.40;;;;;;4898275;29;19926;-61
2021/03/25 09:52:10;;;;;;;;;;;15.10;61.70;;;;;;4898188;29;19909;-61
2021/03/25 09:54:40;;;;;;;;;;;15.00;61.60;;;;;;4898315;29;19999;-61
2021/03/25 09:57:19;;;;;;;;;;;15.30;61.70;;;;;;4898885;29;19907;-61
2021/03/25 09:59:49;;;;;;;;;;;15.30;61.80;;;;;;4898352;29;19955;-61
2021/03/25 10:02:34;;;;;;;;;;;15.30;62.20;;;;;;4898261;29;19915;-56
2021/03/25 10:05:18;;;;;;;;;;;15.30;62.10;;;;;;4898209;29;20446;-61
2021/03/25 10:07:44;;;;;;;;;;;15.30;62.10;;;;;;4898116;29;19908;-60
2021/03/25 10:10:19;;;;;;;;;;;15.30;62.10;;;;;;4898322;29;20304;-61
2021/03/25 10:12:49;;;;;;;;;;;15.30;62.00;;;;;;4898191;29;19914;-61
2021/03/25 10:15:27;;;;;;;;;;;15.30;62.00;;;;;;4898792;29;20051;-61
2021/03/25 10:17:53;;;;;;;;;;;15.30;62.30;;;;;;4898129;29;19915;-61
2021/03/25 10:20:45;;;;;;;;;;;15.30;62.30;;;;;;4897972;29;19930;-61
2021/03/25 10:23:19;;;;;;;;;;;15.30;62.10;;;;;;4869113;29;19907;-61
2021/03/25 10:25:46;;;;;;;;;;;15.30;62.00;;;;;;4897874;29;19990;-60
2021/03/25 10:28:13;;;;;;;;;;;15.40;62.10;;;;;;4897775;29;19971;-61
2021/03/25 10:30:39;;;;;;;;;;;17.20;63.00;;;;;;4897725;29;19971;-61
2021/03/25 10:33:06;;;;;;;;;;;15.30;61.90;;;;;;4897989;29;20375;-61
2021/03/25 10:35:33;;;;;;;;;;;15.50;61.90;;;;;;4897794;29;20303;-61
2021/03/25 10:38:03;;;;;;;;;;;15.50;61.80;;;;;;4897711;29;19957;-61
2021/03/25 10:40:36;;;;;;;;;;;15.40;61.70;;;;;;4897675;29;20332;-61
2021/03/25 10:43:06;;;;;;;;;;;15.60;61.60;;;;;;4897703;29;19907;-61
2021/03/25 10:45:36;;;;;;;;;;;15.70;61.50;;;;;;4897677;29;19938;-61
2021/03/25 10:48:07;;;;;;;;;;;15.70;61.50;;;;;;4897143;29;19907;-62
2021/03/25 10:50:35;;;;;;;;;;;15.70;61.40;;;;;;4896053;29;19922;-61
2021/03/25 10:53:02;;;;;;;;;;;15.90;61.40;;;;;;4897564;29;19915;-62
2021/03/25 10:55:30;;;;;;;;;;;15.80;61.30;;;;;;4897409;29;19911;-61
2021/03/25 10:58:00;;;;;;;;;;;15.60;61.10;;;;;;4896629;29;19956;-61
2021/03/25 11:00:31;;;;;;;;;;;15.80;61.30;;;;;;4896809;29;19915;-61
2021/03/25 11:02:58;;;;;;;;;;;15.60;61.20;;;;;;4897503;29;19946;-61
2021/03/25 11:05:25;;;;;;;;;;;15.70;61.20;;;;;;4897044;29;19907;-61
2021/03/25 11:07:52;;;;;;;;;;;15.70;61.30;;;;;;4897405;29;19936;-61
2021/03/25 11:10:21;;;;;;;;;;;15.80;61.40;;;;;;4896915;29;19915;-61
2021/03/25 11:12:53;;;;;;;;;;;15.80;61.30;;;;;;4897435;29;20442;-60
2021/03/25 11:15:21;;;;;;;;;;;15.60;61.30;;;;;;4898013;29;20002;-60
2021/03/25 11:17:47;;;;;;;;;;;15.60;61.40;;;;;;4897220;29;20331;-60
2021/03/25 11:20:15;;;;;;;;;;;15.70;61.40;;;;;;4897040;29;19922;-60
2021/03/25 11:22:40;;;;;;;;;;;15.70;61.40;;;;;;4897367;29;19911;-60
2021/03/25 11:25:11;;;;;;;;;;;16.10;61.80;;;;;;4897076;29;20002;-60
2021/03/25 11:27:38;;;;;;;;;;;15.70;61.50;;;;;;4897257;29;19956;-61
2021/03/25 11:30:03;;;;;;;;;;;15.20;61.90;;;;;;4897445;29;19955;-61
2021/03/25 11:32:36;;;;;;;;;;;15.60;61.50;;;;;;4897589;29;19950;-61
2021/03/25 11:35:20;;;;;;;;;;;15.60;61.30;;;;;;4897198;29;19923;-61
2021/03/25 11:37:46;;;;;;;;;;;15.60;61.30;;;;;;4897228;29;20332;-61
2021/03/25 11:40:13;;;;;;;;;;;16.10;61.70;;;;;;4896851;29;19942;-60
2021/03/25 11:42:39;;;;;;;;;;;15.70;61.40;;;;;;4897190;29;20002;-60
2021/03/25 11:45:06;;;;;;;;;;;15.60;61.30;;;;;;4895655;29;19914;-60
2021/03/25 11:47:37;;;;;;;;;;;15.70;61.40;;;;;;4896658;29;19908;-60
2021/03/25 11:50:27;;;;;;;;;;;15.70;61.40;;;;;;4897030;29;19915;-61
2021/03/25 11:52:54;;;;;;;;;;;15.80;61.30;;;;;;4897139;29;19908;-60
2021/03/25 11:55:34;;;;;;;;;;;15.80;61.20;;;;;;4897204;29;19907;-60
2021/03/25 11:58:07;;;;;;;;;;;15.80;61.10;;;;;;4896951;29;19908;-60
2021/03/25 12:00:33;;;;;;;;;;;15.80;61.10;;;;;;4897199;29;19919;-61
2021/03/25 12:03:13;;;;;;;;;;;15.80;61.10;;;;;;4896706;29;19907;-61
2021/03/25 12:05:44;;;;;;;;;;;15.80;61.00;;;;;;4897153;29;19911;-58
2021/03/25 12:08:12;;;;;;;;;;;15.90;61.00;;;;;;4896800;29;20183;-60
2021/03/25 12:10:37;;;;;;;;;;;15.90;61.20;;;;;;4896707;29;20018;-60
2021/03/25 12:13:03;;;;;;;;;;;15.90;61.50;;;;;;4896966;29;20470;-59
2021/03/25 12:15:29;;;;;;;;;;;16.00;61.40;;;;;;4897400;29;19919;-60
2021/03/25 12:17:59;;;;;;;;;;;16.00;61.80;;;;;;4897389;29;19908;-61
2021/03/25 12:20:27;;;;;;;;;;;16.10;61.40;;;;;;4911777;29;20278;-60
2021/03/25 12:22:58;;;;;;;;;;;16.20;61.30;;;;;;4918997;29;19907;-61
2021/03/25 12:25:23;;;;;;;;;;;16.10;61.10;;;;;;4919247;29;19967;-61
2021/03/25 12:27:49;;;;;;;;;;;16.20;61.00;;;;;;4918922;29;19911;-61
2021/03/25 12:30:15;;;;;;;;;;;16.40;61.10;;;;;;4918850;29;19958;-60
2021/03/25 12:32:40;;;;;;;;;;;16.50;60.90;;;;;;4918717;29;19911;-61
2021/03/25 12:35:07;;;;;;;;;;;16.50;60.80;;;;;;4919089;29;20053;-61
2021/03/25 12:37:33;;;;;;;;;;;16.60;60.60;;;;;;4918761;29;20013;-60
2021/03/25 12:39:58;;;;;;;;;;;16.60;60.30;;;;;;4901233;29;19957;-62
2021/03/25 12:42:24;;;;;;;;;;;16.70;60.20;;;;;;4919005;29;19918;-61
2021/03/25 12:44:49;;;;;;;;;;;16.70;60.10;;;;;;4918647;29;19911;-61
2021/03/25 12:47:15;;;;;;;;;;;16.70;60.00;;;;;;4901761;29;19907;-61
2021/03/25 12:49:40;;;;;;;;;;;16.80;60.00;;;;;;4918946;29;19919;-61
2021/03/25 12:52:06;;;;;;;;;;;16.60;59.90;;;;;;4908098;29;20367;-61
2021/03/25 12:54:32;;;;;;;;;;;16.80;59.70;;;;;;4899752;29;19907;-61
2021/03/25 12:56:59;;;;;;;;;;;16.90;59.60;;;;;;4899276;29;19912;-62
2021/03/25 12:59:26;;;;;;;;;;;16.80;59.70;;;;;;4899627;29;20039;-61
2021/03/25 13:01:51;;;;;;;;;;;16.90;59.50;;;;;;4899657;29;19908;-61
2021/03/25 13:04:17;;;;;;;;;;;16.80;59.40;;;;;;4899580;29;19923;-62
2021/03/25 13:06:43;;;;;;;;;;;17.00;59.60;;;;;;4899621;29;19917;-61
2021/03/25 13:09:08;;;;;;;;;;;16.70;59.50;;;;;;4899861;29;20378;-61
2021/03/25 13:11:34;;;;;;;;;;;17.00;59.60;;;;;;4899530;29;20002;-62
2021/03/25 13:13:59;;;;;;;;;;;17.30;59.70;;;;;;4899487;29;20362;-62
2021/03/25 13:16:25;;;;;;;;;;;17.00;59.50;;;;;;4900004;29;20422;-62
2021/03/25 13:18:51;;;;;;;;;;;16.90;59.20;;;;;;4899613;29;19955;-62
2021/03/25 13:21:17;;;;;;;;;;;17.00;59.20;;;;;;4899492;29;20355;-62
2021/03/25 13:23:42;;;;;;;;;;;17.00;59.10;;;;;;4899074;29;19915;-61
2021/03/25 13:26:08;;;;;;;;;;;16.90;59.00;;;;;;4899308;29;19939;-61
2021/03/25 13:28:34;;;;;;;;;;;17.00;59.00;;;;;;4898885;29;19907;-62
2021/03/25 13:31:00;;;;;;;;;;;17.20;59.20;;;;;;4882376;29;19927;-62
2021/03/25 13:33:26;;;;;;;;;;;17.20;59.00;;;;;;4899090;29;20363;-61
2021/03/25 13:35:52;;;;;;;;;;;17.30;59.00;;;;;;4898842;29;20342;-61
2021/03/25 13:38:18;;;;;;;;;;;17.30;58.90;;;;;;4881968;29;20370;-62
2021/03/25 13:40:44;;;;;;;;;;;17.10;58.70;;;;;;4898721;29;19918;-61
2021/03/25 13:43:12;;;;;;;;;;;17.50;58.70;;;;;;4898598;29;19908;-61
2021/03/25 13:45:38;;;;;;;;;;;17.20;58.40;;;;;;4898840;29;20278;-61
2021/03/25 13:48:03;;;;;;;;;;;17.90;58.80;;;;;;4898581;29;19912;-57
2021/03/25 13:50:31;;;;;;;;;;;17.40;58.40;;;;;;4898485;29;19919;-57
2021/03/25 13:52:56;;;;;;;;;;;17.30;58.30;;;;;;4898629;29;19936;-57
2021/03/25 13:55:24;;;;;;;;;;;17.20;58.00;;;;;;4898419;29;19907;-61
2021/03/25 13:57:50;;;;;;;;;;;17.40;58.00;;;;;;4898337;29;19916;-61
2021/03/25 14:00:16;;;;;;;;;;;17.40;58.20;;;;;;4898152;29;19914;-62
2021/03/25 14:02:41;;;;;;;;;;;17.30;58.20;;;;;;4898445;29;19907;-60
2021/03/25 14:05:07;;;;;;;;;;;18.10;58.90;;;;;;4898545;29;19907;-60
2021/03/25 14:07:33;;;;;;;;;;;17.40;58.30;;;;;;4898556;29;19954;-60
2021/03/25 14:09:58;;;;;;;;;;;17.20;58.10;;;;;;4898286;29;19967;-59
2021/03/25 14:12:23;;;;;;;;;;;17.30;58.40;;;;;;4898559;29;19907;-60
2021/03/25 14:14:49;;;;;;;;;;;17.40;58.40;;;;;;4899069;29;19997;-61
2021/03/25 14:17:14;;;;;;;;;;;17.10;58.30;;;;;;4898849;29;19919;-59
2021/03/25 14:19:40;;;;;;;;;;;17.30;58.20;;;;;;4898057;29;19911;-58
2021/03/25 14:22:05;;;;;;;;;;;17.20;58.00;;;;;;4898201;29;19908;-60
2021/03/25 14:24:32;;;;;;;;;;;17.20;57.80;;;;;;4897734;29;19907;-60
2021/03/25 14:26:57;;;;;;;;;;;17.30;57.50;;;;;;4897958;29;19907;-60
2021/03/25 14:29:23;;;;;;;;;;;17.10;57.40;;;;;;4898142;29;19918;-59
2021/03/25 14:31:48;;;;;;;;;;;17.00;57.40;;;;;;4898007;29;19916;-60
2021/03/25 14:34:14;;;;;;;;;;;17.10;57.80;;;;;;4897756;29;19914;-59